sensor_id;sensor_type;location;lat;lon;timestamp;temperature;humidity
44271;DHT22;29963;44.594;11.368;2023-05-07T00:01:24;19.60;99.90
44271;DHT22;29963;44.594;11.368;2023-05-07T00:03:50;19.70;99.90
44271;DHT22;29963;44.594;11.368;2023-05-07T00:06:15;19.70;99.90
44271;DHT22;29963;44.594;11.368;2023-05-07T00:08:41;19.60;99.90
44271;DHT22;29963;44.594;11.368;2023-05-07T00:11:06;19.60;99.90
44271;DHT22;29963;44.594;11.368;2023-05-07T00:13:32;19.50;99.90
44271;DHT22;29963;44.594;11.368;2023-05-07T00:16:03;19.50;99.90
44271;DHT22;29963;44.594;11.368;2023-05-07T00:18:29;19.50;99.90
44271;DHT22;29963;44.594;11.368;2023-05-07T00:20:55;19.50;99.90
44271;DHT22;29963;44.594;11.368;2023-05-07T00:23:22;19.50;99.90
44271;DHT22;29963;44.594;11.368;2023-05-07T00:25:47;19.50;99.90
44271;DHT22;29963;44.594;11.368;2023-05-07T00:28:13;19.50;99.90
44271;DHT22;29963;44.594;11.368;2023-05-07T00:30:38;19.50;99.90
44271;DHT22;29963;44.594;11.368;2023-05-07T00:33:04;19.40;99.90
44271;DHT22;29963;44.594;11.368;2023-05-07T00:35:30;19.40;99.90
44271;DHT22;29963;44.594;11.368;2023-05-07T00:37:55;19.40;99.90
44271;DHT22;29963;44.594;11.368;2023-05-07T00:40:21;19.30;99.90
44271;DHT22;29963;44.594;11.368;2023-05-07T00:42:47;19.20;99.90
44271;DHT22;29963;44.594;11.368;2023-05-07T00:45:14;19.20;99.90
44271;DHT22;29963;44.594;11.368;2023-05-07T00:47:40;19.20;99.90
44271;DHT22;29963;44.594;11.368;2023-05-07T00:50:08;19.20;99.90
44271;DHT22;29963;44.594;11.368;2023-05-07T00:52:34;19.20;99.90
44271;DHT22;29963;44.594;11.368;2023-05-07T00:55:04;19.10;99.90
44271;DHT22;29963;44.594;11.368;2023-05-07T00:57:34;19.10;99.90
44271;DHT22;29963;44.594;11.368;2023-05-07T01:00:02;19.20;99.90
44271;DHT22;29963;44.594;11.368;2023-05-07T01:02:28;19.20;99.90
44271;DHT22;29963;44.594;11.368;2023-05-07T01:04:55;19.20;99.90
44271;DHT22;29963;44.594;11.368;2023-05-07T01:07:21;19.20;99.90
44271;DHT22;29963;44.594;11.368;2023-05-07T01:09:47;19.20;99.90
44271;DHT22;29963;44.594;11.368;2023-05-07T01:12:13;19.20;99.90
44271;DHT22;29963;44.594;11.368;2023-05-07T01:14:38;19.30;99.90
44271;DHT22;29963;44.594;11.368;2023-05-07T01:17:04;19.30;99.90
44271;DHT22;29963;44.594;11.368;2023-05-07T01:19:30;19.30;99.90
44271;DHT22;29963;44.594;11.368;2023-05-07T01:22:04;19.30;99.90
44271;DHT22;29963;44.594;11.368;2023-05-07T01:24:32;19.20;99.90
44271;DHT22;29963;44.594;11.368;2023-05-07T01:26:59;19.30;99.90
44271;DHT22;29963;44.594;11.368;2023-05-07T01:29:24;19.20;99.90
44271;DHT22;29963;44.594;11.368;2023-05-07T01:31:51;19.20;99.90
44271;DHT22;29963;44.594;11.368;2023-05-07T01:34:18;19.10;99.90
44271;DHT22;29963;44.594;11.368;2023-05-07T01:36:46;19.10;99.90
44271;DHT22;29963;44.594;11.368;2023-05-07T01:39:12;19.10;99.90
44271;DHT22;29963;44.594;11.368;2023-05-07T01:41:38;19.10;99.90
44271;DHT22;29963;44.594;11.368;2023-05-07T01:44:05;19.10;99.90
44271;DHT22;29963;44.594;11.368;2023-05-07T01:46:31;19.10;99.90
44271;DHT22;29963;44.594;11.368;2023-05-07T01:48:58;19.10;99.90
44271;DHT22;29963;44.594;11.368;2023-05-07T01:51:23;19.10;99.90
44271;DHT22;29963;44.594;11.368;2023-05-07T01:53:49;19.00;99.90
44271;DHT22;29963;44.594;11.368;2023-05-07T01:56:17;18.90;99.90
44271;DHT22;29963;44.594;11.368;2023-05-07T01:58:44;18.90;99.90
44271;DHT22;29963;44.594;11.368;2023-05-07T02:01:11;18.70;99.90
44271;DHT22;29963;44.594;11.368;2023-05-07T02:03:36;18.60;99.90
44271;DHT22;29963;44.594;11.368;2023-05-07T02:06:02;18.50;99.90
44271;DHT22;29963;44.594;11.368;2023-05-07T02:08:27;18.40;99.90
44271;DHT22;29963;44.594;11.368;2023-05-07T02:10:53;18.40;99.90
44271;DHT22;29963;44.594;11.368;2023-05-07T02:13:19;18.30;99.90
44271;DHT22;29963;44.594;11.368;2023-05-07T02:15:45;18.30;99.90
44271;DHT22;29963;44.594;11.368;2023-05-07T02:18:15;18.20;99.90
44271;DHT22;29963;44.594;11.368;2023-05-07T02:20:41;18.20;99.90
44271;DHT22;29963;44.594;11.368;2023-05-07T02:23:06;18.10;99.90
44271;DHT22;29963;44.594;11.368;2023-05-07T02:25:32;18.10;99.90
44271;DHT22;29963;44.594;11.368;2023-05-07T02:27:57;18.00;99.90
44271;DHT22;29963;44.594;11.368;2023-05-07T02:30:24;18.00;99.90
44271;DHT22;29963;44.594;11.368;2023-05-07T02:32:50;17.90;99.90
44271;DHT22;29963;44.594;11.368;2023-05-07T02:35:16;17.90;99.90
44271;DHT22;29963;44.594;11.368;2023-05-07T02:37:42;18.00;99.90
44271;DHT22;29963;44.594;11.368;2023-05-07T02:40:08;18.00;99.90
44271;DHT22;29963;44.594;11.368;2023-05-07T02:42:34;18.00;99.90
44271;DHT22;29963;44.594;11.368;2023-05-07T02:44:59;18.00;99.90
44271;DHT22;29963;44.594;11.368;2023-05-07T02:47:25;17.90;99.90
44271;DHT22;29963;44.594;11.368;2023-05-07T02:49:54;17.80;99.90
44271;DHT22;29963;44.594;11.368;2023-05-07T02:52:20;17.80;99.90
44271;DHT22;29963;44.594;11.368;2023-05-07T02:54:46;17.70;99.90
44271;DHT22;29963;44.594;11.368;2023-05-07T02:57:12;17.70;99.90
44271;DHT22;29963;44.594;11.368;2023-05-07T02:59:37;17.60;99.90
44271;DHT22;29963;44.594;11.368;2023-05-07T03:02:03;17.60;99.90
44271;DHT22;29963;44.594;11.368;2023-05-07T03:04:28;17.60;99.90
44271;DHT22;29963;44.594;11.368;2023-05-07T03:06:54;17.60;99.90
44271;DHT22;29963;44.594;11.368;2023-05-07T03:09:20;17.70;99.90
44271;DHT22;29963;44.594;11.368;2023-05-07T03:11:45;17.80;99.90
44271;DHT22;29963;44.594;11.368;2023-05-07T03:14:11;17.90;99.90
44271;DHT22;29963;44.594;11.368;2023-05-07T03:16:38;17.90;99.90
44271;DHT22;29963;44.594;11.368;2023-05-07T03:19:03;17.90;99.90
44271;DHT22;29963;44.594;11.368;2023-05-07T03:21:29;17.80;99.90
44271;DHT22;29963;44.594;11.368;2023-05-07T03:23:56;17.80;99.90
44271;DHT22;29963;44.594;11.368;2023-05-07T03:26:21;17.70;99.90
44271;DHT22;29963;44.594;11.368;2023-05-07T03:28:47;17.70;99.90
44271;DHT22;29963;44.594;11.368;2023-05-07T03:31:13;17.60;99.90
44271;DHT22;29963;44.594;11.368;2023-05-07T03:33:56;17.50;99.90
44271;DHT22;29963;44.594;11.368;2023-05-07T03:36:22;17.40;99.90
44271;DHT22;29963;44.594;11.368;2023-05-07T03:38:48;17.40;99.90
44271;DHT22;29963;44.594;11.368;2023-05-07T03:41:14;17.40;99.90
44271;DHT22;29963;44.594;11.368;2023-05-07T03:43:40;17.40;99.90
44271;DHT22;29963;44.594;11.368;2023-05-07T03:46:05;17.40;99.90
44271;DHT22;29963;44.594;11.368;2023-05-07T03:48:31;17.30;99.90
44271;DHT22;29963;44.594;11.368;2023-05-07T03:50:57;17.20;99.90
44271;DHT22;29963;44.594;11.368;2023-05-07T03:53:23;17.20;99.90
44271;DHT22;29963;44.594;11.368;2023-05-07T03:55:49;17.20;99.90
44271;DHT22;29963;44.594;11.368;2023-05-07T03:58:15;17.20;99.90
44271;DHT22;29963;44.594;11.368;2023-05-07T04:00:41;17.00;99.90
44271;DHT22;29963;44.594;11.368;2023-05-07T04:03:06;17.00;99.90
44271;DHT22;29963;44.594;11.368;2023-05-07T04:05:32;17.10;99.90
44271;DHT22;29963;44.594;11.368;2023-05-07T04:07:58;17.00;99.90
44271;DHT22;29963;44.594;11.368;2023-05-07T04:10:24;17.00;99.90
44271;DHT22;29963;44.594;11.368;2023-05-07T04:12:50;16.90;99.90
44271;DHT22;29963;44.594;11.368;2023-05-07T04:15:15;17.00;99.90
44271;DHT22;29963;44.594;11.368;2023-05-07T04:17:41;17.00;99.90
44271;DHT22;29963;44.594;11.368;2023-05-07T04:20:09;17.00;99.90
44271;DHT22;29963;44.594;11.368;2023-05-07T04:22:35;17.00;99.90
44271;DHT22;29963;44.594;11.368;2023-05-07T04:25:01;17.00;99.90
44271;DHT22;29963;44.594;11.368;2023-05-07T04:27:27;16.90;99.90
44271;DHT22;29963;44.594;11.368;2023-05-07T04:29:53;16.90;99.90
44271;DHT22;29963;44.594;11.368;2023-05-07T04:32:23;16.90;99.90
44271;DHT22;29963;44.594;11.368;2023-05-07T04:34:50;16.90;99.90
44271;DHT22;29963;44.594;11.368;2023-05-07T04:37:16;16.90;99.90
44271;DHT22;29963;44.594;11.368;2023-05-07T04:39:41;16.90;99.90
44271;DHT22;29963;44.594;11.368;2023-05-07T04:42:07;17.00;99.90
44271;DHT22;29963;44.594;11.368;2023-05-07T04:44:34;17.00;99.90
44271;DHT22;29963;44.594;11.368;2023-05-07T04:47:00;17.00;99.90
44271;DHT22;29963;44.594;11.368;2023-05-07T04:49:26;16.90;99.90
44271;DHT22;29963;44.594;11.368;2023-05-07T04:51:52;16.90;99.90
44271;DHT22;29963;44.594;11.368;2023-05-07T04:54:17;16.80;99.90
44271;DHT22;29963;44.594;11.368;2023-05-07T04:56:43;16.80;99.90
44271;DHT22;29963;44.594;11.368;2023-05-07T04:59:08;16.80;99.90
44271;DHT22;29963;44.594;11.368;2023-05-07T05:01:34;16.80;99.90
44271;DHT22;29963;44.594;11.368;2023-05-07T05:04:00;16.90;99.90
44271;DHT22;29963;44.594;11.368;2023-05-07T05:06:26;16.90;99.90
44271;DHT22;29963;44.594;11.368;2023-05-07T05:08:51;16.90;99.90
44271;DHT22;29963;44.594;11.368;2023-05-07T05:11:17;16.80;99.90
44271;DHT22;29963;44.594;11.368;2023-05-07T05:13:42;16.80;99.90
44271;DHT22;29963;44.594;11.368;2023-05-07T05:16:08;16.80;99.90
44271;DHT22;29963;44.594;11.368;2023-05-07T05:18:34;16.70;99.90
44271;DHT22;29963;44.594;11.368;2023-05-07T05:21:00;16.70;99.90
44271;DHT22;29963;44.594;11.368;2023-05-07T05:23:26;16.60;99.90
44271;DHT22;29963;44.594;11.368;2023-05-07T05:25:56;16.70;99.90
44271;DHT22;29963;44.594;11.368;2023-05-07T05:28:23;16.70;99.90
44271;DHT22;29963;44.594;11.368;2023-05-07T05:30:49;16.70;99.90
44271;DHT22;29963;44.594;11.368;2023-05-07T05:33:14;16.70;99.90
44271;DHT22;29963;44.594;11.368;2023-05-07T05:35:40;16.80;99.90
44271;DHT22;29963;44.594;11.368;2023-05-07T05:38:05;16.80;99.90
44271;DHT22;29963;44.594;11.368;2023-05-07T05:40:31;16.80;99.90
44271;DHT22;29963;44.594;11.368;2023-05-07T05:42:57;16.90;99.90
44271;DHT22;29963;44.594;11.368;2023-05-07T05:45:23;17.00;99.90
44271;DHT22;29963;44.594;11.368;2023-05-07T05:47:48;17.00;99.90
44271;DHT22;29963;44.594;11.368;2023-05-07T05:50:14;17.00;99.90
44271;DHT22;29963;44.594;11.368;2023-05-07T05:52:39;16.90;99.90
44271;DHT22;29963;44.594;11.368;2023-05-07T05:55:06;17.00;99.90
44271;DHT22;29963;44.594;11.368;2023-05-07T05:57:32;17.00;99.90
44271;DHT22;29963;44.594;11.368;2023-05-07T05:59:57;17.10;99.90
44271;DHT22;29963;44.594;11.368;2023-05-07T06:02:23;17.20;99.90
44271;DHT22;29963;44.594;11.368;2023-05-07T06:04:49;17.30;99.90
44271;DHT22;29963;44.594;11.368;2023-05-07T06:07:14;17.30;99.90
44271;DHT22;29963;44.594;11.368;2023-05-07T06:09:40;17.30;99.90
44271;DHT22;29963;44.594;11.368;2023-05-07T06:12:06;17.30;99.90
44271;DHT22;29963;44.594;11.368;2023-05-07T06:14:31;17.40;99.90
44271;DHT22;29963;44.594;11.368;2023-05-07T06:16:57;17.40;99.90
44271;DHT22;29963;44.594;11.368;2023-05-07T06:19:22;17.40;99.90
44271;DHT22;29963;44.594;11.368;2023-05-07T06:21:49;17.50;99.90
44271;DHT22;29963;44.594;11.368;2023-05-07T06:24:15;17.50;99.90
44271;DHT22;29963;44.594;11.368;2023-05-07T06:26:41;17.50;99.90
44271;DHT22;29963;44.594;11.368;2023-05-07T06:29:06;17.50;99.90
44271;DHT22;29963;44.594;11.368;2023-05-07T06:31:32;17.50;99.90
44271;DHT22;29963;44.594;11.368;2023-05-07T06:33:58;17.60;99.90
44271;DHT22;29963;44.594;11.368;2023-05-07T06:36:24;17.60;99.90
44271;DHT22;29963;44.594;11.368;2023-05-07T06:38:50;17.50;99.90
44271;DHT22;29963;44.594;11.368;2023-05-07T06:41:15;17.50;99.90
44271;DHT22;29963;44.594;11.368;2023-05-07T06:43:41;17.60;99.90
44271;DHT22;29963;44.594;11.368;2023-05-07T06:46:06;17.60;99.90
44271;DHT22;29963;44.594;11.368;2023-05-07T06:48:32;17.60;99.90
44271;DHT22;29963;44.594;11.368;2023-05-07T06:50:58;17.70;99.90
44271;DHT22;29963;44.594;11.368;2023-05-07T06:53:24;17.80;99.90
44271;DHT22;29963;44.594;11.368;2023-05-07T06:55:50;17.90;99.90
44271;DHT22;29963;44.594;11.368;2023-05-07T06:58:15;17.80;99.90
44271;DHT22;29963;44.594;11.368;2023-05-07T07:00:41;17.80;99.90
44271;DHT22;29963;44.594;11.368;2023-05-07T07:03:07;17.90;99.90
44271;DHT22;29963;44.594;11.368;2023-05-07T07:05:32;18.00;99.90
44271;DHT22;29963;44.594;11.368;2023-05-07T07:07:58;18.10;99.90
44271;DHT22;29963;44.594;11.368;2023-05-07T07:10:23;18.20;99.90
44271;DHT22;29963;44.594;11.368;2023-05-07T07:12:49;18.30;99.90
44271;DHT22;29963;44.594;11.368;2023-05-07T07:15:16;18.40;99.90
44271;DHT22;29963;44.594;11.368;2023-05-07T07:17:42;18.50;99.90
44271;DHT22;29963;44.594;11.368;2023-05-07T07:20:08;18.50;99.90
44271;DHT22;29963;44.594;11.368;2023-05-07T07:22:33;18.60;99.90
44271;DHT22;29963;44.594;11.368;2023-05-07T07:24:59;18.70;99.90
44271;DHT22;29963;44.594;11.368;2023-05-07T07:27:25;18.70;99.90
44271;DHT22;29963;44.594;11.368;2023-05-07T07:29:51;18.70;99.90
44271;DHT22;29963;44.594;11.368;2023-05-07T07:32:17;18.90;99.90
44271;DHT22;29963;44.594;11.368;2023-05-07T07:34:42;19.00;99.90
44271;DHT22;29963;44.594;11.368;2023-05-07T07:37:08;19.20;99.90
44271;DHT22;29963;44.594;11.368;2023-05-07T07:39:33;19.20;99.90
44271;DHT22;29963;44.594;11.368;2023-05-07T07:41:59;19.30;99.90
44271;DHT22;29963;44.594;11.368;2023-05-07T07:44:25;19.20;99.90
44271;DHT22;29963;44.594;11.368;2023-05-07T07:46:51;19.20;99.90
44271;DHT22;29963;44.594;11.368;2023-05-07T07:49:17;19.30;99.90
44271;DHT22;29963;44.594;11.368;2023-05-07T07:51:42;19.40;99.90
44271;DHT22;29963;44.594;11.368;2023-05-07T07:54:08;19.60;99.90
44271;DHT22;29963;44.594;11.368;2023-05-07T07:56:34;19.60;99.90
44271;DHT22;29963;44.594;11.368;2023-05-07T07:59:00;19.80;99.90
44271;DHT22;29963;44.594;11.368;2023-05-07T08:01:25;19.80;99.90
44271;DHT22;29963;44.594;11.368;2023-05-07T08:03:52;19.90;99.90
44271;DHT22;29963;44.594;11.368;2023-05-07T08:06:18;20.00;99.90
44271;DHT22;29963;44.594;11.368;2023-05-07T08:08:43;20.10;99.90
44271;DHT22;29963;44.594;11.368;2023-05-07T08:11:09;20.10;99.90
44271;DHT22;29963;44.594;11.368;2023-05-07T08:13:36;20.20;99.90
44271;DHT22;29963;44.594;11.368;2023-05-07T08:16:01;20.20;99.90
44271;DHT22;29963;44.594;11.368;2023-05-07T08:18:27;20.30;99.90
44271;DHT22;29963;44.594;11.368;2023-05-07T08:20:54;20.40;99.90
44271;DHT22;29963;44.594;11.368;2023-05-07T08:23:20;20.30;99.90
44271;DHT22;29963;44.594;11.368;2023-05-07T08:25:46;20.40;99.90
44271;DHT22;29963;44.594;11.368;2023-05-07T08:28:11;20.60;99.90
44271;DHT22;29963;44.594;11.368;2023-05-07T08:30:37;20.60;99.90
44271;DHT22;29963;44.594;11.368;2023-05-07T08:33:03;20.70;99.90
44271;DHT22;29963;44.594;11.368;2023-05-07T08:35:28;20.90;99.90
44271;DHT22;29963;44.594;11.368;2023-05-07T08:37:54;21.00;99.90
44271;DHT22;29963;44.594;11.368;2023-05-07T08:40:25;21.10;99.90
44271;DHT22;29963;44.594;11.368;2023-05-07T08:42:52;21.20;99.90
44271;DHT22;29963;44.594;11.368;2023-05-07T08:45:19;21.20;99.90
44271;DHT22;29963;44.594;11.368;2023-05-07T08:47:49;21.30;99.90
44271;DHT22;29963;44.594;11.368;2023-05-07T08:50:17;21.30;99.90
44271;DHT22;29963;44.594;11.368;2023-05-07T08:52:42;21.30;99.90
44271;DHT22;29963;44.594;11.368;2023-05-07T08:55:09;21.30;99.90
44271;DHT22;29963;44.594;11.368;2023-05-07T08:57:35;21.30;99.90
44271;DHT22;29963;44.594;11.368;2023-05-07T09:00:02;21.30;99.90
44271;DHT22;29963;44.594;11.368;2023-05-07T09:02:28;21.40;99.90
44271;DHT22;29963;44.594;11.368;2023-05-07T09:04:54;21.40;99.90
44271;DHT22;29963;44.594;11.368;2023-05-07T09:07:20;21.40;99.90
44271;DHT22;29963;44.594;11.368;2023-05-07T09:09:46;21.40;99.90
44271;DHT22;29963;44.594;11.368;2023-05-07T09:12:12;21.50;99.90
44271;DHT22;29963;44.594;11.368;2023-05-07T09:14:38;21.70;99.90
44271;DHT22;29963;44.594;11.368;2023-05-07T09:17:04;21.80;99.90
44271;DHT22;29963;44.594;11.368;2023-05-07T09:19:30;21.80;99.90
44271;DHT22;29963;44.594;11.368;2023-05-07T09:22:04;21.80;99.90
44271;DHT22;29963;44.594;11.368;2023-05-07T09:24:30;22.00;99.90
44271;DHT22;29963;44.594;11.368;2023-05-07T09:27:00;22.00;99.90
44271;DHT22;29963;44.594;11.368;2023-05-07T09:29:26;22.10;99.90
44271;DHT22;29963;44.594;11.368;2023-05-07T09:31:54;22.10;99.90
44271;DHT22;29963;44.594;11.368;2023-05-07T09:34:20;22.20;99.90
44271;DHT22;29963;44.594;11.368;2023-05-07T09:36:46;22.30;99.90
44271;DHT22;29963;44.594;11.368;2023-05-07T09:39:12;22.30;99.90
44271;DHT22;29963;44.594;11.368;2023-05-07T09:41:45;22.30;99.90
44271;DHT22;29963;44.594;11.368;2023-05-07T09:44:11;22.30;99.90
44271;DHT22;29963;44.594;11.368;2023-05-07T09:46:38;22.40;99.90
44271;DHT22;29963;44.594;11.368;2023-05-07T09:49:07;22.50;99.90
44271;DHT22;29963;44.594;11.368;2023-05-07T09:51:41;22.60;99.90
44271;DHT22;29963;44.594;11.368;2023-05-07T09:54:10;22.60;99.90
44271;DHT22;29963;44.594;11.368;2023-05-07T09:56:36;22.70;99.90
44271;DHT22;29963;44.594;11.368;2023-05-07T09:59:03;22.70;99.90
44271;DHT22;29963;44.594;11.368;2023-05-07T10:01:31;22.70;99.90
44271;DHT22;29963;44.594;11.368;2023-05-07T10:03:57;22.70;99.90
44271;DHT22;29963;44.594;11.368;2023-05-07T10:06:24;22.80;99.90
44271;DHT22;29963;44.594;11.368;2023-05-07T10:08:52;22.80;99.90
44271;DHT22;29963;44.594;11.368;2023-05-07T10:11:18;22.80;99.90
44271;DHT22;29963;44.594;11.368;2023-05-07T10:13:46;22.80;99.90
44271;DHT22;29963;44.594;11.368;2023-05-07T10:16:13;22.90;99.90
44271;DHT22;29963;44.594;11.368;2023-05-07T10:18:40;23.00;99.90
44271;DHT22;29963;44.594;11.368;2023-05-07T10:21:18;23.00;99.90
44271;DHT22;29963;44.594;11.368;2023-05-07T10:24:11;23.10;99.90
44271;DHT22;29963;44.594;11.368;2023-05-07T10:26:42;23.10;99.90
44271;DHT22;29963;44.594;11.368;2023-05-07T10:29:25;23.10;99.90
44271;DHT22;29963;44.594;11.368;2023-05-07T10:34:47;23.20;99.90
44271;DHT22;29963;44.594;11.368;2023-05-07T10:37:14;23.30;99.90
44271;DHT22;29963;44.594;11.368;2023-05-07T10:39:40;23.30;99.90
44271;DHT22;29963;44.594;11.368;2023-05-07T10:42:14;23.30;99.90
44271;DHT22;29963;44.594;11.368;2023-05-07T10:44:40;23.40;99.90
44271;DHT22;29963;44.594;11.368;2023-05-07T10:47:13;23.40;99.90
44271;DHT22;29963;44.594;11.368;2023-05-07T10:52:24;23.40;99.90
44271;DHT22;29963;44.594;11.368;2023-05-07T10:57:46;23.40;99.90
44271;DHT22;29963;44.594;11.368;2023-05-07T11:05:26;23.70;99.90
44271;DHT22;29963;44.594;11.368;2023-05-07T11:08:02;23.80;99.90
44271;DHT22;29963;44.594;11.368;2023-05-07T11:10:47;23.80;99.90
44271;DHT22;29963;44.594;11.368;2023-05-07T11:13:14;23.90;99.90
44271;DHT22;29963;44.594;11.368;2023-05-07T11:15:42;23.90;99.90
44271;DHT22;29963;44.594;11.368;2023-05-07T11:18:09;24.00;99.90
44271;DHT22;29963;44.594;11.368;2023-05-07T11:20:56;24.00;99.90
44271;DHT22;29963;44.594;11.368;2023-05-07T11:26:04;24.10;99.90
44271;DHT22;29963;44.594;11.368;2023-05-07T11:28:37;24.10;99.90
44271;DHT22;29963;44.594;11.368;2023-05-07T11:31:03;24.30;99.90
44271;DHT22;29963;44.594;11.368;2023-05-07T11:33:30;24.40;99.90
44271;DHT22;29963;44.594;11.368;2023-05-07T11:35:56;24.40;99.90
44271;DHT22;29963;44.594;11.368;2023-05-07T11:38:22;24.50;99.90
44271;DHT22;29963;44.594;11.368;2023-05-07T11:40:52;24.50;99.90
44271;DHT22;29963;44.594;11.368;2023-05-07T11:43:18;24.50;99.90
44271;DHT22;29963;44.594;11.368;2023-05-07T11:45:45;24.50;99.90
44271;DHT22;29963;44.594;11.368;2023-05-07T11:48:12;24.50;99.90
44271;DHT22;29963;44.594;11.368;2023-05-07T11:53:25;24.70;99.90
44271;DHT22;29963;44.594;11.368;2023-05-07T11:55:57;24.80;99.90
44271;DHT22;29963;44.594;11.368;2023-05-07T11:58:24;24.90;99.90
44271;DHT22;29963;44.594;11.368;2023-05-07T12:00:54;24.90;99.90
44271;DHT22;29963;44.594;11.368;2023-05-07T12:03:20;24.90;99.90
44271;DHT22;29963;44.594;11.368;2023-05-07T12:05:46;25.00;99.90
44271;DHT22;29963;44.594;11.368;2023-05-07T12:08:19;25.00;99.90
44271;DHT22;29963;44.594;11.368;2023-05-07T12:10:48;25.20;99.90
44271;DHT22;29963;44.594;11.368;2023-05-07T12:13:15;25.20;99.90
44271;DHT22;29963;44.594;11.368;2023-05-07T12:15:42;25.40;99.90
44271;DHT22;29963;44.594;11.368;2023-05-07T12:18:07;25.50;99.90
44271;DHT22;29963;44.594;11.368;2023-05-07T12:20:35;25.50;99.90
44271;DHT22;29963;44.594;11.368;2023-05-07T12:23:01;25.60;99.90
44271;DHT22;29963;44.594;11.368;2023-05-07T12:25:30;25.60;99.90
44271;DHT22;29963;44.594;11.368;2023-05-07T12:27:56;25.70;99.90
44271;DHT22;29963;44.594;11.368;2023-05-07T12:30:24;25.70;99.90
44271;DHT22;29963;44.594;11.368;2023-05-07T12:32:53;25.80;99.90
44271;DHT22;29963;44.594;11.368;2023-05-07T12:35:26;25.90;99.90
44271;DHT22;29963;44.594;11.368;2023-05-07T12:37:59;26.00;99.90
44271;DHT22;29963;44.594;11.368;2023-05-07T12:40:42;26.10;99.90
44271;DHT22;29963;44.594;11.368;2023-05-07T12:43:14;26.10;99.90
44271;DHT22;29963;44.594;11.368;2023-05-07T12:45:41;26.20;99.90
44271;DHT22;29963;44.594;11.368;2023-05-07T12:48:09;26.30;99.90
44271;DHT22;29963;44.594;11.368;2023-05-07T12:50:35;26.30;99.90
44271;DHT22;29963;44.594;11.368;2023-05-07T12:53:03;26.40;99.90
44271;DHT22;29963;44.594;11.368;2023-05-07T12:55:31;26.50;99.90
44271;DHT22;29963;44.594;11.368;2023-05-07T12:57:57;26.60;99.90
44271;DHT22;29963;44.594;11.368;2023-05-07T13:00:38;26.70;99.90
44271;DHT22;29963;44.594;11.368;2023-05-07T13:03:04;26.80;99.90
44271;DHT22;29963;44.594;11.368;2023-05-07T13:05:31;26.90;99.90
44271;DHT22;29963;44.594;11.368;2023-05-07T13:07:57;26.90;99.90
44271;DHT22;29963;44.594;11.368;2023-05-07T13:10:23;26.90;99.90
44271;DHT22;29963;44.594;11.368;2023-05-07T13:12:50;27.00;99.90
44271;DHT22;29963;44.594;11.368;2023-05-07T13:15:16;27.10;99.90
44271;DHT22;29963;44.594;11.368;2023-05-07T13:17:42;27.10;99.90
44271;DHT22;29963;44.594;11.368;2023-05-07T13:20:09;27.20;99.90
44271;DHT22;29963;44.594;11.368;2023-05-07T13:22:35;27.30;99.90
44271;DHT22;29963;44.594;11.368;2023-05-07T13:25:01;27.40;99.90
44271;DHT22;29963;44.594;11.368;2023-05-07T13:27:26;27.50;99.90
44271;DHT22;29963;44.594;11.368;2023-05-07T13:29:52;27.50;99.90
44271;DHT22;29963;44.594;11.368;2023-05-07T13:32:17;27.60;99.90
44271;DHT22;29963;44.594;11.368;2023-05-07T13:34:43;27.80;99.90
44271;DHT22;29963;44.594;11.368;2023-05-07T13:37:09;27.90;99.80
44271;DHT22;29963;44.594;11.368;2023-05-07T13:39:34;28.00;99.80
44271;DHT22;29963;44.594;11.368;2023-05-07T13:42:00;28.20;99.90
44271;DHT22;29963;44.594;11.368;2023-05-07T13:44:26;28.20;99.90
44271;DHT22;29963;44.594;11.368;2023-05-07T13:46:52;28.30;99.90
44271;DHT22;29963;44.594;11.368;2023-05-07T13:49:19;28.30;99.90
44271;DHT22;29963;44.594;11.368;2023-05-07T13:51:44;28.40;99.90
44271;DHT22;29963;44.594;11.368;2023-05-07T13:54:10;28.40;99.90
44271;DHT22;29963;44.594;11.368;2023-05-07T13:56:36;28.50;99.90
44271;DHT22;29963;44.594;11.368;2023-05-07T13:59:02;28.60;99.90
44271;DHT22;29963;44.594;11.368;2023-05-07T14:01:27;28.70;99.70
44271;DHT22;29963;44.594;11.368;2023-05-07T14:03:53;28.70;99.20
44271;DHT22;29963;44.594;11.368;2023-05-07T14:06:19;28.80;99.60
44271;DHT22;29963;44.594;11.368;2023-05-07T14:08:44;28.90;99.50
44271;DHT22;29963;44.594;11.368;2023-05-07T14:11:10;28.90;99.10
44271;DHT22;29963;44.594;11.368;2023-05-07T14:13:36;29.00;98.50
44271;DHT22;29963;44.594;11.368;2023-05-07T14:16:02;29.00;98.80
44271;DHT22;29963;44.594;11.368;2023-05-07T14:18:28;29.20;98.00
44271;DHT22;29963;44.594;11.368;2023-05-07T14:20:54;29.30;97.30
44271;DHT22;29963;44.594;11.368;2023-05-07T14:23:19;29.40;97.40
44271;DHT22;29963;44.594;11.368;2023-05-07T14:25:50;29.50;97.30
44271;DHT22;29963;44.594;11.368;2023-05-07T14:28:16;29.70;96.70
44271;DHT22;29963;44.594;11.368;2023-05-07T14:30:41;29.80;96.90
44271;DHT22;29963;44.594;11.368;2023-05-07T14:33:07;29.90;96.30
44271;DHT22;29963;44.594;11.368;2023-05-07T14:35:33;29.90;96.30
44271;DHT22;29963;44.594;11.368;2023-05-07T14:37:58;30.00;96.50
44271;DHT22;29963;44.594;11.368;2023-05-07T14:40:24;30.10;97.30
44271;DHT22;29963;44.594;11.368;2023-05-07T14:42:49;30.30;96.80
44271;DHT22;29963;44.594;11.368;2023-05-07T14:45:15;30.40;96.30
44271;DHT22;29963;44.594;11.368;2023-05-07T14:47:41;30.40;96.10
44271;DHT22;29963;44.594;11.368;2023-05-07T14:50:06;30.60;96.00
44271;DHT22;29963;44.594;11.368;2023-05-07T14:52:32;30.70;95.50
44271;DHT22;29963;44.594;11.368;2023-05-07T14:54:58;30.80;94.90
44271;DHT22;29963;44.594;11.368;2023-05-07T14:57:23;31.10;95.10
44271;DHT22;29963;44.594;11.368;2023-05-07T14:59:49;31.20;94.50
44271;DHT22;29963;44.594;11.368;2023-05-07T15:02:15;31.20;94.40
44271;DHT22;29963;44.594;11.368;2023-05-07T15:04:41;31.00;94.10
44271;DHT22;29963;44.594;11.368;2023-05-07T15:07:15;30.80;94.60
44271;DHT22;29963;44.594;11.368;2023-05-07T15:09:44;30.80;94.70
44271;DHT22;29963;44.594;11.368;2023-05-07T15:12:10;30.90;94.90
44271;DHT22;29963;44.594;11.368;2023-05-07T15:14:39;31.10;94.40
44271;DHT22;29963;44.594;11.368;2023-05-07T15:17:05;31.40;94.40
44271;DHT22;29963;44.594;11.368;2023-05-07T15:19:31;31.80;94.50
44271;DHT22;29963;44.594;11.368;2023-05-07T15:21:58;32.40;94.10
44271;DHT22;29963;44.594;11.368;2023-05-07T15:24:25;33.10;93.30
44271;DHT22;29963;44.594;11.368;2023-05-07T15:26:52;33.70;91.50
44271;DHT22;29963;44.594;11.368;2023-05-07T15:29:17;34.20;91.10
44271;DHT22;29963;44.594;11.368;2023-05-07T15:31:43;34.60;89.90